createdAt,value
2022-12-18T00:01:19.115Z,0.70
2022-12-18T00:03:46.582Z,0.70
2022-12-18T00:06:15.513Z,0.70
2022-12-18T00:08:43.180Z,0.70
2022-12-18T00:11:17.881Z,0.70
2022-12-18T00:13:45.098Z,0.70
2022-12-18T00:16:13.967Z,0.70
2022-12-18T00:18:41.397Z,0.60
2022-12-18T00:21:09.425Z,0.60
2022-12-18T00:23:37.144Z,0.60
2022-12-18T00:26:10.916Z,0.60
2022-12-18T00:28:37.808Z,0.60
2022-12-18T00:31:05.607Z,0.60
2022-12-18T00:33:32.620Z,0.60
2022-12-18T00:36:06.586Z,0.60
2022-12-18T00:38:34.026Z,0.60
2022-12-18T00:41:01.006Z,0.60
2022-12-18T00:43:28.433Z,0.60
2022-12-18T00:45:55.477Z,0.60
2022-12-18T00:48:22.553Z,0.60
2022-12-18T00:50:50.106Z,0.50
2022-12-18T00:53:17.092Z,0.50
2022-12-18T00:55:44.113Z,0.50
2022-12-18T00:58:11.368Z,0.50
2022-12-18T01:00:39.052Z,0.50
2022-12-18T01:03:06.194Z,0.50
2022-12-18T01:05:33.307Z,0.40
2022-12-18T01:08:00.301Z,0.40
2022-12-18T01:10:27.221Z,0.40
2022-12-18T01:12:57.903Z,0.40
2022-12-18T01:15:24.769Z,0.30
2022-12-18T01:17:53.638Z,0.30
2022-12-18T01:20:20.853Z,0.30
2022-12-18T01:22:47.738Z,0.40
2022-12-18T01:25:16.110Z,0.30
2022-12-18T01:27:44.032Z,0.40
2022-12-18T01:30:12.356Z,0.40
2022-12-18T01:32:39.139Z,0.40
2022-12-18T01:35:06.673Z,0.40
2022-12-18T01:37:33.524Z,0.40
2022-12-18T01:40:00.369Z,0.40
2022-12-18T01:42:27.279Z,0.40
2022-12-18T01:44:56.988Z,0.40
2022-12-18T01:47:56.361Z,0.40
2022-12-18T01:50:37.388Z,0.40
2022-12-18T01:53:08.599Z,0.40
2022-12-18T01:55:42.185Z,0.40
2022-12-18T01:58:10.162Z,0.40
2022-12-18T02:00:37.301Z,0.40
2022-12-18T02:03:04.248Z,0.40
2022-12-18T02:05:39.853Z,0.40
2022-12-18T02:08:11.469Z,0.40
2022-12-18T02:10:42.761Z,0.40
2022-12-18T02:13:24.446Z,0.40
2022-12-18T02:16:07.008Z,0.40
2022-12-18T02:18:39.609Z,0.40
2022-12-18T02:21:12.483Z,0.40
2022-12-18T02:23:52.653Z,0.40
2022-12-18T02:26:48.053Z,0.40
2022-12-18T02:29:22.441Z,0.30
2022-12-18T02:31:52.808Z,0.30
2022-12-18T02:34:20.876Z,0.40
2022-12-18T02:36:47.736Z,0.40
2022-12-18T02:39:14.634Z,0.40
2022-12-18T02:41:51.036Z,0.40
2022-12-18T02:44:18.708Z,0.40
2022-12-18T02:46:52.639Z,0.40
2022-12-18T02:49:44.106Z,0.40
2022-12-18T02:52:31.487Z,0.40
2022-12-18T02:55:19.570Z,0.40
2022-12-18T02:58:04.368Z,0.40
2022-12-18T03:00:40.613Z,0.40
2022-12-18T03:03:11.717Z,0.40
2022-12-18T03:05:53.500Z,0.40
2022-12-18T03:08:31.900Z,0.40
2022-12-18T03:11:05.302Z,0.40
2022-12-18T03:13:48.534Z,0.40
2022-12-18T03:16:22.241Z,0.40
2022-12-18T03:18:58.399Z,0.40
2022-12-18T03:21:40.261Z,0.40
2022-12-18T03:24:08.950Z,0.40
2022-12-18T03:26:36.831Z,0.40
2022-12-18T03:29:08.465Z,0.40
2022-12-18T03:31:36.316Z,0.40
2022-12-18T03:34:10.361Z,0.40
2022-12-18T03:36:42.880Z,0.40
2022-12-18T03:39:09.864Z,0.40
2022-12-18T03:41:53.893Z,0.40
2022-12-18T03:44:51.981Z,0.40
2022-12-18T03:47:44.953Z,0.40
2022-12-18T03:50:28.395Z,0.40
2022-12-18T03:53:00.429Z,0.30
2022-12-18T03:55:28.734Z,0.30
2022-12-18T03:58:00.395Z,0.30
2022-12-18T04:00:33.981Z,0.30
2022-12-18T04:03:07.248Z,0.30
2022-12-18T04:05:41.501Z,0.30
2022-12-18T04:08:08.512Z,0.30
2022-12-18T04:10:41.567Z,0.30
2022-12-18T04:13:08.444Z,0.30
2022-12-18T04:15:36.781Z,0.30
2022-12-18T04:18:05.198Z,0.30
2022-12-18T04:20:39.629Z,0.30
2022-12-18T04:23:06.496Z,0.30
2022-12-18T04:25:33.926Z,0.30
2022-12-18T04:28:11.520Z,0.30
2022-12-18T04:30:39.368Z,0.30
2022-12-18T04:33:12.598Z,0.30
2022-12-18T04:35:40.851Z,0.30
2022-12-18T04:38:09.321Z,0.30
2022-12-18T04:40:36.805Z,0.30
2022-12-18T04:43:08.253Z,0.40
2022-12-18T04:45:35.097Z,0.40
2022-12-18T04:48:02.572Z,0.40
2022-12-18T04:50:29.518Z,0.50
2022-12-18T04:52:57.073Z,0.50
2022-12-18T04:55:27.393Z,0.50
2022-12-18T04:57:54.288Z,0.50
2022-12-18T05:00:21.169Z,0.60
2022-12-18T05:02:48.203Z,0.60
2022-12-18T05:05:15.190Z,0.60
2022-12-18T05:07:42.040Z,0.60
2022-12-18T05:10:09.141Z,0.60
2022-12-18T05:12:57.196Z,0.70
2022-12-18T05:15:24.076Z,0.70
2022-12-18T05:17:50.910Z,0.70
2022-12-18T05:20:19.132Z,0.70
2022-12-18T05:22:46.001Z,0.70
2022-12-18T05:25:12.797Z,0.70
2022-12-18T05:27:39.687Z,0.70
2022-12-18T05:30:07.091Z,0.70
2022-12-18T05:32:34.059Z,0.70
2022-12-18T05:35:00.867Z,0.70
2022-12-18T05:37:27.818Z,0.80
2022-12-18T05:39:54.621Z,0.70
2022-12-18T05:42:21.507Z,0.80
2022-12-18T05:44:48.525Z,0.80
2022-12-18T05:47:15.350Z,0.80
2022-12-18T05:49:42.145Z,0.80
2022-12-18T05:52:09.925Z,0.80
2022-12-18T05:54:36.755Z,0.80
2022-12-18T05:57:03.717Z,0.90
2022-12-18T05:59:30.560Z,0.90
2022-12-18T06:01:57.576Z,0.90
2022-12-18T06:04:24.507Z,0.90
2022-12-18T06:06:51.347Z,0.90
2022-12-18T06:09:18.180Z,1.00
2022-12-18T06:11:45.038Z,1.00
2022-12-18T06:14:11.932Z,1.00
2022-12-18T06:16:38.832Z,1.00
2022-12-18T06:19:06.114Z,1.00
2022-12-18T06:21:33.077Z,1.10
2022-12-18T06:24:01.128Z,1.10
2022-12-18T06:26:28.707Z,1.20
2022-12-18T06:28:55.857Z,1.20
2022-12-18T06:31:22.813Z,1.20
2022-12-18T06:33:49.753Z,1.20
2022-12-18T06:36:17.586Z,1.20
2022-12-18T06:38:44.660Z,1.20
2022-12-18T06:41:16.575Z,1.30
2022-12-18T06:43:43.919Z,1.30
2022-12-18T06:46:11.090Z,1.30
2022-12-18T06:48:38.067Z,1.40
2022-12-18T06:51:05.071Z,1.40
2022-12-18T06:53:32.761Z,1.30
2022-12-18T06:56:09.256Z,1.40
2022-12-18T06:58:37.285Z,1.40
2022-12-18T07:01:05.440Z,1.30
2022-12-18T07:03:32.480Z,1.40
2022-12-18T07:05:59.351Z,1.40
2022-12-18T07:08:26.512Z,1.40
2022-12-18T07:10:56.385Z,1.40
2022-12-18T07:13:23.628Z,1.40
2022-12-18T07:15:50.465Z,1.40
2022-12-18T07:18:17.271Z,1.40
2022-12-18T07:20:45.123Z,1.40
2022-12-18T07:23:12.845Z,1.50
2022-12-18T07:25:40.431Z,1.40
2022-12-18T07:28:07.780Z,1.50
2022-12-18T07:30:38.431Z,1.50
2022-12-18T07:33:05.395Z,1.40
2022-12-18T07:35:33.403Z,1.50
2022-12-18T07:38:03.150Z,1.50
2022-12-18T07:40:29.955Z,1.50
2022-12-18T07:42:56.779Z,1.50
2022-12-18T07:45:23.586Z,1.50
2022-12-18T07:47:50.487Z,1.50
2022-12-18T07:50:17.411Z,1.50
2022-12-18T07:52:44.331Z,1.50
2022-12-18T07:55:11.208Z,1.50
2022-12-18T07:57:57.639Z,1.50
2022-12-18T08:00:25.103Z,1.50
2022-12-18T08:02:52.137Z,1.50
2022-12-18T08:05:19.043Z,1.50
2022-12-18T08:07:46.048Z,1.50
2022-12-18T08:10:12.884Z,1.50
2022-12-18T08:12:39.796Z,1.50
2022-12-18T08:15:07.268Z,1.50
2022-12-18T08:17:34.214Z,1.60
2022-12-18T08:20:01.908Z,1.60
2022-12-18T08:22:28.749Z,1.60
2022-12-18T08:24:55.664Z,1.60
2022-12-18T08:27:30.291Z,1.70
2022-12-18T08:29:58.166Z,1.70
2022-12-18T08:32:25.878Z,1.70
2022-12-18T08:34:52.741Z,1.70
2022-12-18T08:37:19.805Z,1.70
2022-12-18T08:39:46.785Z,1.70
2022-12-18T08:42:31.850Z,1.70
2022-12-18T08:44:58.768Z,1.80
2022-12-18T08:47:27.062Z,1.80
2022-12-18T08:49:53.955Z,1.80
2022-12-18T08:52:20.802Z,1.80
2022-12-18T08:54:47.724Z,1.80
2022-12-18T08:57:14.602Z,1.90
2022-12-18T08:59:41.496Z,1.90
2022-12-18T09:02:11.343Z,1.90
2022-12-18T09:04:38.393Z,1.90
2022-12-18T09:07:07.053Z,2.00
2022-12-18T09:09:33.891Z,2.00
2022-12-18T09:12:00.756Z,2.00
2022-12-18T09:14:27.573Z,2.00
2022-12-18T09:16:54.448Z,2.00
2022-12-18T09:19:21.330Z,2.00
2022-12-18T09:21:48.652Z,2.00
2022-12-18T09:24:15.681Z,2.00
2022-12-18T09:26:43.872Z,2.00
2022-12-18T09:29:14.268Z,2.10
2022-12-18T09:31:41.706Z,2.10
2022-12-18T09:34:08.645Z,2.10
2022-12-18T09:36:35.591Z,2.20
2022-12-18T09:39:06.444Z,2.20
2022-12-18T09:41:45.210Z,2.20
2022-12-18T09:44:12.274Z,2.20
2022-12-18T09:46:43.679Z,2.20
2022-12-18T09:49:13.814Z,2.30
2022-12-18T09:51:51.218Z,2.30
2022-12-18T09:54:33.975Z,2.30
2022-12-18T09:57:00.865Z,2.30
2022-12-18T09:59:36.732Z,2.30
2022-12-18T10:02:18.061Z,2.30
2022-12-18T10:04:45.642Z,2.30
2022-12-18T10:07:24.826Z,2.40
2022-12-18T10:10:17.866Z,2.40
2022-12-18T10:13:06.391Z,2.40
2022-12-18T10:16:11.649Z,2.40
2022-12-18T10:19:12.683Z,2.50
2022-12-18T10:22:00.953Z,2.50
2022-12-18T10:24:44.487Z,2.50
2022-12-18T10:27:22.977Z,2.60
2022-12-18T10:29:50.032Z,2.50
2022-12-18T10:32:24.365Z,2.60
2022-12-18T10:34:59.656Z,2.60
2022-12-18T10:37:30.006Z,2.60
2022-12-18T10:40:16.642Z,2.60
2022-12-18T10:42:47.031Z,2.60
2022-12-18T10:45:18.509Z,2.70
2022-12-18T10:47:47.598Z,2.70
2022-12-18T10:51:10.242Z,2.70
2022-12-18T10:53:28.628Z,2.80
2022-12-18T10:55:57.078Z,2.80
2022-12-18T10:58:27.696Z,2.80
2022-12-18T11:01:10.907Z,2.80
2022-12-18T11:03:47.640Z,2.80
2022-12-18T11:06:18.130Z,2.80
2022-12-18T11:08:57.963Z,2.80
2022-12-18T11:11:25.172Z,2.90
2022-12-18T11:14:05.041Z,2.90
2022-12-18T11:17:03.106Z,2.90
2022-12-18T11:19:38.765Z,2.90
2022-12-18T11:22:19.100Z,3.00
2022-12-18T11:28:02.453Z,3.00
2022-12-18T11:30:33.457Z,3.00
2022-12-18T11:33:04.713Z,3.00
2022-12-18T11:35:54.126Z,3.00
2022-12-18T11:38:28.344Z,3.00
2022-12-18T11:41:21.560Z,3.00
2022-12-18T11:43:56.433Z,3.00
2022-12-18T11:46:58.682Z,3.00
2022-12-18T11:49:34.709Z,3.00
2022-12-18T11:52:03.776Z,3.00
2022-12-18T11:54:30.961Z,3.00
2022-12-18T11:57:04.850Z,3.00
2022-12-18T11:59:34.466Z,3.00
2022-12-18T12:02:51.441Z,3.00
2022-12-18T12:05:42.888Z,3.00
2022-12-18T12:08:15.868Z,3.00
2022-12-18T12:10:53.325Z,3.00
2022-12-18T12:13:25.912Z,3.00
2022-12-18T12:15:55.888Z,3.00
2022-12-18T12:18:47.459Z,3.00
2022-12-18T12:21:42.851Z,3.00
2022-12-18T12:24:40.698Z,3.00
2022-12-18T12:27:11.608Z,3.00
2022-12-18T12:30:03.498Z,3.00
2022-12-18T12:32:48.644Z,2.90
2022-12-18T12:35:30.865Z,2.90
2022-12-18T12:38:17.345Z,3.00
2022-12-18T12:41:02.176Z,3.00
2022-12-18T12:43:50.253Z,3.00
2022-12-18T12:46:19.221Z,3.00
2022-12-18T12:49:05.545Z,3.00
2022-12-18T12:51:36.770Z,3.10
2022-12-18T12:54:05.415Z,3.10
2022-12-18T12:57:10.430Z,3.10
2022-12-18T12:59:43.434Z,3.10
2022-12-18T13:02:42.676Z,3.10
2022-12-18T13:05:27.017Z,3.20
2022-12-18T13:08:04.373Z,3.20
2022-12-18T13:10:38.796Z,3.20
2022-12-18T13:13:10.481Z,3.20
2022-12-18T13:15:46.279Z,3.20
2022-12-18T13:18:20.877Z,3.10
2022-12-18T13:21:03.288Z,3.10
2022-12-18T13:23:40.275Z,3.10
2022-12-18T13:26:09.220Z,3.20
2022-12-18T13:28:48.534Z,3.20
2022-12-18T13:31:37.482Z,3.10
2022-12-18T13:34:25.840Z,3.10
2022-12-18T13:36:55.011Z,3.10
2022-12-18T13:39:26.698Z,3.10
2022-12-18T13:42:06.022Z,3.10
2022-12-18T13:44:44.345Z,3.20
2022-12-18T13:47:34.722Z,3.20
2022-12-18T13:50:02.775Z,3.20
2022-12-18T13:52:33.180Z,3.20
2022-12-18T13:55:00.862Z,3.20
2022-12-18T13:57:32.201Z,3.20
2022-12-18T13:59:59.608Z,3.20
2022-12-18T14:02:28.500Z,3.20
2022-12-18T14:04:56.474Z,3.20
2022-12-18T14:07:25.136Z,3.30
2022-12-18T14:10:01.940Z,3.30
2022-12-18T14:12:57.431Z,3.30
2022-12-18T14:15:27.666Z,3.30
2022-12-18T14:17:58.043Z,3.30
2022-12-18T14:20:26.164Z,3.30
2022-12-18T14:22:53.244Z,3.30
2022-12-18T14:25:21.451Z,3.30
2022-12-18T14:28:09.521Z,3.30
2022-12-18T14:30:37.115Z,3.40
2022-12-18T14:33:10.932Z,3.40
2022-12-18T14:35:39.417Z,3.50
2022-12-18T14:38:17.518Z,3.50
2022-12-18T14:40:44.677Z,3.40
2022-12-18T14:43:14.790Z,3.40
2022-12-18T14:45:43.832Z,3.50
2022-12-18T14:48:23.415Z,3.50
2022-12-18T14:50:59.052Z,3.50
2022-12-18T14:53:40.847Z,3.50
2022-12-18T14:56:32.355Z,3.50
2022-12-18T14:59:07.111Z,3.60
2022-12-18T15:01:38.350Z,3.60
2022-12-18T15:04:06.427Z,3.50
2022-12-18T15:06:34.465Z,3.60
2022-12-18T15:09:02.794Z,3.60
2022-12-18T15:11:41.706Z,3.70
2022-12-18T15:14:35.858Z,3.70
2022-12-18T15:17:05.029Z,3.70
2022-12-18T15:19:36.251Z,3.70
2022-12-18T15:22:06.665Z,3.80
2022-12-18T15:24:34.018Z,3.80
2022-12-18T15:27:00.901Z,3.80
2022-12-18T15:29:28.063Z,3.90
2022-12-18T15:32:16.778Z,3.90
2022-12-18T15:34:43.633Z,3.90
2022-12-18T15:37:10.534Z,3.90
2022-12-18T15:39:37.369Z,3.90
2022-12-18T15:42:27.625Z,4.00
2022-12-18T15:44:54.488Z,4.00
2022-12-18T15:47:21.296Z,4.00
2022-12-18T15:49:48.162Z,4.10
2022-12-18T15:52:26.879Z,4.10
2022-12-18T15:55:12.473Z,4.10
2022-12-18T15:57:39.354Z,4.10
2022-12-18T16:00:06.774Z,4.20
2022-12-18T16:02:33.707Z,4.20
2022-12-18T16:05:00.674Z,4.20
2022-12-18T16:07:30.592Z,4.30
2022-12-18T16:09:58.854Z,4.30
2022-12-18T16:12:27.380Z,4.40
2022-12-18T16:14:54.387Z,4.40
2022-12-18T16:17:21.182Z,4.50
2022-12-18T16:19:48.041Z,4.50
2022-12-18T16:22:25.673Z,4.60
2022-12-18T16:24:52.944Z,4.60
2022-12-18T16:27:20.237Z,4.70
2022-12-18T16:29:47.190Z,4.80
2022-12-18T16:32:16.451Z,4.80
2022-12-18T16:34:44.568Z,4.80
2022-12-18T16:37:12.380Z,4.90
2022-12-18T16:39:39.543Z,4.90
2022-12-18T16:42:19.666Z,5.00
2022-12-18T16:44:47.048Z,5.00
2022-12-18T16:47:14.982Z,5.00
2022-12-18T16:49:42.882Z,5.00
2022-12-18T16:52:09.717Z,5.10
2022-12-18T16:54:36.858Z,5.20
2022-12-18T16:57:05.391Z,5.20
2022-12-18T16:59:35.007Z,5.30
2022-12-18T17:02:02.066Z,5.30
2022-12-18T17:04:28.988Z,5.30
2022-12-18T17:06:55.934Z,5.30
2022-12-18T17:09:25.672Z,5.40
2022-12-18T17:11:53.328Z,5.40
2022-12-18T17:14:21.664Z,5.40
2022-12-18T17:16:54.249Z,5.40
2022-12-18T17:19:35.508Z,5.50
2022-12-18T17:22:02.541Z,5.50
2022-12-18T17:24:34.509Z,5.50
2022-12-18T17:27:02.777Z,5.60
2022-12-18T17:29:29.681Z,5.60
2022-12-18T17:31:57.234Z,5.60
2022-12-18T17:34:25.522Z,5.70
2022-12-18T17:36:52.372Z,5.70
2022-12-18T17:39:19.996Z,5.70
2022-12-18T17:41:47.448Z,5.70
2022-12-18T17:44:14.296Z,5.80
2022-12-18T17:46:41.331Z,5.80
2022-12-18T17:49:08.354Z,5.80
2022-12-18T17:51:35.324Z,5.80
2022-12-18T17:54:02.200Z,5.80
2022-12-18T17:56:29.120Z,5.90
2022-12-18T17:58:56.030Z,5.90
2022-12-18T18:01:24.367Z,5.90
2022-12-18T18:03:53.779Z,5.90
2022-12-18T18:06:20.957Z,6.00
2022-12-18T18:08:48.044Z,6.00
2022-12-18T18:11:35.074Z,6.00
2022-12-18T18:14:02.087Z,6.00
2022-12-18T18:16:36.936Z,6.00
2022-12-18T18:19:05.893Z,6.10
2022-12-18T18:21:35.057Z,6.10
2022-12-18T18:24:05.428Z,6.10
2022-12-18T18:26:32.537Z,6.10
2022-12-18T18:29:00.076Z,6.20
2022-12-18T18:31:30.019Z,6.20
2022-12-18T18:33:57.242Z,6.20
2022-12-18T18:36:24.394Z,6.20
2022-12-18T18:38:51.744Z,6.20
2022-12-18T18:41:18.901Z,6.30
2022-12-18T18:43:45.907Z,6.30
2022-12-18T18:46:14.202Z,6.30
2022-12-18T18:48:41.234Z,6.30
2022-12-18T18:51:16.096Z,6.30
2022-12-18T18:53:51.709Z,6.30
2022-12-18T18:59:07.786Z,6.30
2022-12-18T19:01:34.936Z,6.40
2022-12-18T19:04:03.367Z,6.40
2022-12-18T19:06:30.364Z,6.40
2022-12-18T19:08:58.603Z,6.40
2022-12-18T19:11:44.739Z,6.40
2022-12-18T19:14:12.894Z,6.40
2022-12-18T19:16:39.806Z,6.40
2022-12-18T19:19:07.091Z,6.40
2022-12-18T19:21:34.820Z,6.50
2022-12-18T19:24:02.661Z,6.50
2022-12-18T19:26:29.805Z,6.50
2022-12-18T19:29:02.106Z,6.60
2022-12-18T19:31:34.838Z,6.50
2022-12-18T19:34:03.326Z,6.60
2022-12-18T19:36:30.524Z,6.60
2022-12-18T19:38:58.896Z,6.60
2022-12-18T19:41:26.123Z,6.60
2022-12-18T19:43:56.123Z,6.60
2022-12-18T19:46:23.830Z,6.70
2022-12-18T19:48:50.758Z,6.70
2022-12-18T19:51:23.507Z,6.70
2022-12-18T19:53:54.938Z,6.70
2022-12-18T19:56:26.049Z,6.70
2022-12-18T19:58:53.509Z,6.80
2022-12-18T20:01:21.284Z,6.80
2022-12-18T20:03:51.716Z,6.80
2022-12-18T20:06:31.904Z,6.90
2022-12-18T20:09:01.146Z,6.90
2022-12-18T20:11:31.909Z,7.00
2022-12-18T20:14:01.877Z,7.00
2022-12-18T20:16:29.098Z,7.00
2022-12-18T20:18:57.153Z,7.10
2022-12-18T20:21:25.205Z,7.20
2022-12-18T20:23:52.312Z,7.20
2022-12-18T20:26:19.392Z,7.20
2022-12-18T20:28:46.510Z,7.20
2022-12-18T20:31:14.176Z,7.30
2022-12-18T20:33:42.238Z,7.30
2022-12-18T20:36:15.288Z,7.40
2022-12-18T20:38:43.601Z,7.40
2022-12-18T20:41:13.629Z,7.50
2022-12-18T20:43:40.933Z,7.50
2022-12-18T20:46:09.771Z,7.60
2022-12-18T20:48:36.785Z,7.60
2022-12-18T20:51:05.930Z,7.60
2022-12-18T20:53:33.512Z,7.70
2022-12-18T20:56:01.531Z,7.70
2022-12-18T20:58:28.478Z,7.70
2022-12-18T21:01:15.413Z,7.80
2022-12-18T21:03:43.135Z,7.90
2022-12-18T21:06:10.500Z,7.80
2022-12-18T21:08:37.563Z,7.90
2022-12-18T21:11:53.378Z,7.90
2022-12-18T21:14:28.093Z,7.90
2022-12-18T21:16:55.513Z,8.00
2022-12-18T21:19:24.528Z,8.00
2022-12-18T21:21:55.652Z,8.00
2022-12-18T21:24:22.559Z,8.00
2022-12-18T21:26:49.502Z,8.00
2022-12-18T21:29:20.339Z,8.00
2022-12-18T21:31:47.338Z,8.00
2022-12-18T21:34:21.649Z,8.00
2022-12-18T21:36:48.686Z,8.00
2022-12-18T21:39:15.889Z,8.10
2022-12-18T21:42:01.299Z,8.10
2022-12-18T21:44:28.289Z,8.10
2022-12-18T21:47:00.615Z,8.10
2022-12-18T21:49:33.475Z,8.10
2022-12-18T21:52:00.623Z,8.10
2022-12-18T21:54:28.183Z,8.20
2022-12-18T21:57:02.394Z,8.20
2022-12-18T21:59:34.026Z,8.20
2022-12-18T22:02:06.008Z,8.20
2022-12-18T22:04:33.022Z,8.20
2022-12-18T22:07:07.009Z,8.20
2022-12-18T22:09:34.207Z,8.20
2022-12-18T22:12:01.109Z,8.30
2022-12-18T22:14:28.173Z,8.30
2022-12-18T22:16:57.315Z,8.30
2022-12-18T22:19:25.086Z,8.30
2022-12-18T22:21:52.141Z,8.40
2022-12-18T22:24:21.469Z,8.40
2022-12-18T22:26:48.655Z,8.40
2022-12-18T22:29:35.580Z,8.40
2022-12-18T22:32:03.592Z,8.50
2022-12-18T22:34:34.473Z,8.50
2022-12-18T22:37:03.783Z,8.50
2022-12-18T22:39:30.705Z,8.60
2022-12-18T22:41:57.916Z,8.70
2022-12-18T22:44:24.870Z,8.70
2022-12-18T22:47:00.802Z,8.70
2022-12-18T22:49:33.901Z,8.80
2022-12-18T22:52:02.594Z,8.80
2022-12-18T22:54:29.542Z,8.90
2022-12-18T22:56:56.768Z,8.90
2022-12-18T22:59:23.958Z,8.90
2022-12-18T23:01:52.917Z,8.90
2022-12-18T23:04:28.567Z,8.90
2022-12-18T23:07:03.137Z,9.00
2022-12-18T23:09:30.054Z,9.00
2022-12-18T23:11:56.982Z,9.00
2022-12-18T23:14:23.844Z,9.10
2022-12-18T23:16:51.476Z,9.10
2022-12-18T23:19:20.246Z,9.10
2022-12-18T23:21:47.327Z,9.20
2022-12-18T23:24:14.411Z,9.20
2022-12-18T23:26:41.372Z,9.30
2022-12-18T23:29:08.165Z,9.20
2022-12-18T23:31:36.533Z,9.30
2022-12-18T23:34:03.854Z,9.30
2022-12-18T23:36:30.843Z,9.40
2022-12-18T23:39:04.512Z,9.40
2022-12-18T23:41:31.956Z,9.50
2022-12-18T23:43:59.632Z,9.50
2022-12-18T23:46:27.409Z,9.60
2022-12-18T23:48:57.603Z,9.60
2022-12-18T23:51:25.646Z,9.60
2022-12-18T23:53:56.685Z,9.60
2022-12-18T23:56:23.634Z,9.60
2022-12-18T23:58:52.035Z,9.70
